createdAt,value
2018-01-04T00:01:56.905Z,16.80
2018-01-04T00:04:23.123Z,21.63
2018-01-04T00:06:49.317Z,18.93
2018-01-04T00:09:15.525Z,11.53
2018-01-04T00:11:41.685Z,9.67
2018-01-04T00:14:08.633Z,15.23
2018-01-04T00:16:35.568Z,9.03
2018-01-04T00:19:01.774Z,17.67
2018-01-04T00:21:28.082Z,12.83
2018-01-04T00:23:54.433Z,9.00
2018-01-04T00:26:20.681Z,11.00
2018-01-04T00:28:46.896Z,12.80
2018-01-04T00:31:13.178Z,12.57
2018-01-04T00:33:39.358Z,11.20
2018-01-04T00:36:05.591Z,14.97
2018-01-04T00:38:32.829Z,10.63
2018-01-04T00:40:59.182Z,9.57
2018-01-04T00:43:25.387Z,9.63
2018-01-04T00:45:51.615Z,15.93
2018-01-04T00:48:17.813Z,13.30
2018-01-04T00:50:44.074Z,19.30
2018-01-04T00:53:10.241Z,13.37
2018-01-04T00:55:37.212Z,17.93
2018-01-04T00:58:03.430Z,13.93
2018-01-04T01:00:30.411Z,16.33
2018-01-04T01:02:56.686Z,15.30
2018-01-04T01:05:22.884Z,18.17
2018-01-04T01:07:49.473Z,17.13
2018-01-04T01:10:16.385Z,12.80
2018-01-04T01:12:42.562Z,13.33
2018-01-04T01:15:08.788Z,16.20
2018-01-04T01:17:34.983Z,15.57
2018-01-04T01:20:01.905Z,14.23
2018-01-04T01:22:28.136Z,18.97
2018-01-04T01:24:54.322Z,22.73
2018-01-04T01:27:20.578Z,15.67
2018-01-04T01:29:46.754Z,16.90
2018-01-04T01:32:13.699Z,16.30
2018-01-04T01:34:40.618Z,21.57
2018-01-04T01:37:06.811Z,23.53
2018-01-04T01:39:33.054Z,16.40
2018-01-04T01:41:59.294Z,16.73
2018-01-04T01:44:25.514Z,20.07
2018-01-04T01:47:06.696Z,16.03
2018-01-04T01:49:32.900Z,22.23
2018-01-04T01:51:59.177Z,13.13
2018-01-04T01:54:25.397Z,13.40
2018-01-04T01:56:51.602Z,17.03
2018-01-04T01:59:17.805Z,22.53
2018-01-04T02:01:44.024Z,21.80
2018-01-04T02:04:10.946Z,20.87
2018-01-04T02:06:37.501Z,18.07
2018-01-04T02:09:04.484Z,19.53
2018-01-04T02:11:30.687Z,10.90
2018-01-04T02:13:56.961Z,19.67
2018-01-04T02:16:23.192Z,22.00
2018-01-04T02:19:01.745Z,27.93
2018-01-04T02:21:40.894Z,23.00
2018-01-04T02:24:19.361Z,23.33
2018-01-04T02:26:57.770Z,17.47
2018-01-04T02:29:36.678Z,16.87
2018-01-04T02:32:15.583Z,17.07
2018-01-04T02:34:53.912Z,18.47
2018-01-04T02:37:32.402Z,23.63
2018-01-04T02:40:11.717Z,21.77
2018-01-04T02:42:50.243Z,29.13
2018-01-04T02:45:27.271Z,21.47
2018-01-04T02:47:53.476Z,24.77
2018-01-04T02:50:19.704Z,17.67
2018-01-04T02:52:45.945Z,20.47
2018-01-04T02:55:12.142Z,21.50
2018-01-04T02:57:39.092Z,21.83
2018-01-04T03:00:06.054Z,23.07
2018-01-04T03:02:32.267Z,19.03
2018-01-04T03:04:59.222Z,22.63
2018-01-04T03:07:26.242Z,15.27
2018-01-04T03:09:52.403Z,16.73
2018-01-04T03:12:18.685Z,20.97
2018-01-04T03:14:44.892Z,33.03
2018-01-04T03:17:11.133Z,24.30
2018-01-04T03:19:37.373Z,11.80
2018-01-04T03:25:06.389Z,15.07
2018-01-04T03:27:38.634Z,10.90
2018-01-04T03:30:11.024Z,14.20
2018-01-04T03:32:43.290Z,9.13
2018-01-04T03:35:15.623Z,17.80
2018-01-04T03:37:47.953Z,7.20
2018-01-04T03:40:20.569Z,9.80
2018-01-04T03:42:52.925Z,8.00
2018-01-04T03:45:26.096Z,11.83
2018-01-04T03:47:58.388Z,11.57
2018-01-04T03:50:31.488Z,7.40
2018-01-04T03:52:58.561Z,11.33
2018-01-04T03:58:20.926Z,18.30
2018-01-04T04:00:53.666Z,11.10
2018-01-04T04:03:20.196Z,10.77
2018-01-04T04:05:52.307Z,10.40
2018-01-04T04:08:24.632Z,14.87
2018-01-04T04:10:50.798Z,6.77
2018-01-04T04:13:16.979Z,9.83
2018-01-04T04:15:43.181Z,6.20
2018-01-04T04:18:09.425Z,12.83
2018-01-04T04:20:35.607Z,13.80
2018-01-04T04:23:01.836Z,13.90
2018-01-04T04:25:28.031Z,8.97
2018-01-04T04:27:54.186Z,10.83
2018-01-04T04:30:21.111Z,9.73
2018-01-04T04:32:47.295Z,10.60
2018-01-04T04:35:13.484Z,20.63
2018-01-04T04:37:40.429Z,15.20
2018-01-04T04:40:07.416Z,16.53
2018-01-04T04:42:33.577Z,9.97
2018-01-04T04:44:59.786Z,10.53
2018-01-04T04:47:26.162Z,8.60
2018-01-04T04:49:52.368Z,14.57
2018-01-04T04:52:18.621Z,12.97
2018-01-04T04:54:45.612Z,23.60
2018-01-04T04:57:11.789Z,12.80
2018-01-04T04:59:38.749Z,16.57
2018-01-04T05:02:06.690Z,23.30
2018-01-04T05:04:32.882Z,10.50
2018-01-04T05:06:59.057Z,20.80
2018-01-04T05:09:25.979Z,15.13
2018-01-04T05:11:52.222Z,13.63
2018-01-04T05:14:18.407Z,11.87
2018-01-04T05:16:44.606Z,15.83
2018-01-04T05:19:10.825Z,17.43
2018-01-04T05:21:37.772Z,16.83
2018-01-04T05:24:04.750Z,16.57
2018-01-04T05:26:30.976Z,20.97
2018-01-04T05:28:57.174Z,13.50
2018-01-04T05:31:24.125Z,15.53
2018-01-04T05:33:51.057Z,18.10
2018-01-04T05:36:17.987Z,10.73
2018-01-04T05:38:44.160Z,23.33
2018-01-04T05:41:10.351Z,17.77
2018-01-04T05:43:36.584Z,17.50
2018-01-04T05:46:02.790Z,15.63
2018-01-04T05:48:29.052Z,13.33
2018-01-04T05:50:56.021Z,17.83
2018-01-04T05:53:22.234Z,18.20
2018-01-04T05:55:49.392Z,24.60
2018-01-04T05:58:15.597Z,28.97
2018-01-04T06:00:41.797Z,13.57
2018-01-04T06:03:08.723Z,26.70
2018-01-04T06:05:34.928Z,19.50
2018-01-04T06:08:01.138Z,29.00
2018-01-04T06:10:28.144Z,26.60
2018-01-04T06:12:54.317Z,22.67
2018-01-04T06:15:21.266Z,20.50
2018-01-04T06:17:48.261Z,28.90
2018-01-04T06:20:14.528Z,23.33
2018-01-04T06:22:40.726Z,24.73
2018-01-04T06:25:07.024Z,19.33
2018-01-04T06:27:33.233Z,18.67
2018-01-04T06:30:00.237Z,12.27
2018-01-04T06:32:26.892Z,27.27
2018-01-04T06:34:53.470Z,19.80
2018-01-04T06:37:19.774Z,25.17
2018-01-04T06:39:46.756Z,24.47
2018-01-04T06:42:12.955Z,16.30
2018-01-04T06:44:40.310Z,18.73
2018-01-04T06:47:07.438Z,26.57
2018-01-04T06:49:33.654Z,39.67
2018-01-04T06:51:59.837Z,17.77
2018-01-04T06:54:26.170Z,22.80
2018-01-04T06:56:52.357Z,23.67
2018-01-04T06:59:18.647Z,21.47
2018-01-04T07:01:44.817Z,16.53
2018-01-04T07:04:11.108Z,18.63
2018-01-04T07:06:37.337Z,18.13
2018-01-04T07:09:03.579Z,30.27
2018-01-04T07:11:29.839Z,16.60
2018-01-04T07:13:56.149Z,29.33
2018-01-04T07:16:22.398Z,26.20
2018-01-04T07:18:54.834Z,16.67
2018-01-04T07:21:21.096Z,16.63
2018-01-04T07:23:47.330Z,13.67
2018-01-04T07:26:13.554Z,20.73
2018-01-04T07:28:39.742Z,19.80
2018-01-04T07:31:06.189Z,14.60
2018-01-04T07:33:33.096Z,15.50
2018-01-04T07:36:00.104Z,17.63
2018-01-04T07:38:26.446Z,17.40
2018-01-04T07:40:52.639Z,15.23
2018-01-04T07:43:18.831Z,17.30
2018-01-04T07:45:45.048Z,16.57
2018-01-04T07:48:12.168Z,14.00
2018-01-04T07:50:38.334Z,12.20
2018-01-04T07:53:05.546Z,12.47
2018-01-04T07:55:31.694Z,18.57
2018-01-04T07:57:58.092Z,19.83
2018-01-04T08:00:24.254Z,15.67
2018-01-04T08:02:51.194Z,17.77
2018-01-04T08:05:18.471Z,19.20
2018-01-04T08:07:45.427Z,19.47
2018-01-04T08:10:11.747Z,18.60
2018-01-04T08:12:38.640Z,23.00
2018-01-04T08:15:04.843Z,17.10
2018-01-04T08:17:31.054Z,18.13
2018-01-04T08:19:57.967Z,18.73
2018-01-04T08:22:24.106Z,21.10
2018-01-04T08:24:51.110Z,22.03
2018-01-04T08:27:17.270Z,14.07
2018-01-04T08:29:43.517Z,15.30
2018-01-04T08:32:10.501Z,14.80
2018-01-04T08:34:36.721Z,10.70
2018-01-04T08:37:03.357Z,17.70
2018-01-04T08:39:29.533Z,16.77
2018-01-04T08:41:55.750Z,23.23
2018-01-04T08:44:21.978Z,14.47
2018-01-04T08:46:48.199Z,12.30
2018-01-04T08:49:14.419Z,11.30
2018-01-04T08:51:40.698Z,9.43
2018-01-04T08:54:07.669Z,15.90
2018-01-04T08:56:33.871Z,17.77
2018-01-04T08:59:00.015Z,17.93
2018-01-04T09:01:26.988Z,15.43
2018-01-04T09:03:53.174Z,16.93
2018-01-04T09:06:19.370Z,18.37
2018-01-04T09:08:45.574Z,9.50
2018-01-04T09:11:11.785Z,11.77
2018-01-04T09:13:37.998Z,12.40
2018-01-04T09:16:04.958Z,14.83
2018-01-04T09:18:31.228Z,15.50
2018-01-04T09:20:57.416Z,11.27
2018-01-04T09:23:23.543Z,12.63
2018-01-04T09:25:50.483Z,12.10
2018-01-04T09:28:17.402Z,15.57
2018-01-04T09:30:43.574Z,14.13
2018-01-04T09:33:09.862Z,12.67
2018-01-04T09:35:36.044Z,12.80
2018-01-04T09:38:02.254Z,12.67
2018-01-04T09:40:29.988Z,14.83
2018-01-04T09:42:56.190Z,16.20
2018-01-04T09:45:22.415Z,13.17
2018-01-04T09:47:48.656Z,15.10
2018-01-04T09:50:14.961Z,9.30
2018-01-04T09:52:42.312Z,10.33
2018-01-04T09:55:08.524Z,13.03
2018-01-04T09:57:34.733Z,11.30
2018-01-04T10:00:01.726Z,12.20
2018-01-04T10:02:27.913Z,18.57
2018-01-04T10:04:54.873Z,17.33
2018-01-04T10:07:21.093Z,12.93
2018-01-04T10:09:47.256Z,19.23
2018-01-04T10:12:13.422Z,10.50
2018-01-04T10:14:39.579Z,13.70
2018-01-04T10:17:05.801Z,13.57
2018-01-04T10:19:32.710Z,10.10
2018-01-04T10:21:58.976Z,15.17
2018-01-04T10:24:25.878Z,10.27
2018-01-04T10:26:52.142Z,14.13
2018-01-04T10:29:19.050Z,10.07
2018-01-04T10:31:45.255Z,10.70
2018-01-04T10:34:11.491Z,14.70
2018-01-04T10:36:37.699Z,12.77
2018-01-04T10:39:03.994Z,13.37
2018-01-04T10:41:30.268Z,12.50
2018-01-04T10:43:56.579Z,20.53
2018-01-04T10:46:22.824Z,10.60
2018-01-04T10:48:49.432Z,10.30
2018-01-04T10:51:16.372Z,16.70
2018-01-04T10:53:43.353Z,8.77
2018-01-04T10:56:09.582Z,9.93
2018-01-04T10:58:35.814Z,13.33
2018-01-04T11:01:02.035Z,11.70
2018-01-04T11:03:28.672Z,8.00
2018-01-04T11:05:55.166Z,7.37
2018-01-04T11:08:21.394Z,8.73
2018-01-04T11:10:50.787Z,10.43
2018-01-04T11:13:17.142Z,8.13
2018-01-04T11:15:43.861Z,8.90
2018-01-04T11:18:11.027Z,8.40
2018-01-04T11:20:37.251Z,8.90
2018-01-04T11:23:03.506Z,12.03
2018-01-04T11:25:30.498Z,13.10
2018-01-04T11:27:56.704Z,9.43
2018-01-04T11:30:22.896Z,9.67
2018-01-04T11:32:49.084Z,9.60
2018-01-04T11:35:15.329Z,10.50
2018-01-04T11:37:41.575Z,12.00
2018-01-04T11:40:07.831Z,8.83
2018-01-04T11:42:34.089Z,9.70
2018-01-04T11:45:00.511Z,8.20
2018-01-04T11:47:26.843Z,6.90
2018-01-04T11:49:53.083Z,9.07
2018-01-04T11:52:19.285Z,9.07
2018-01-04T11:54:45.505Z,9.50
2018-01-04T11:57:12.546Z,8.13
2018-01-04T11:59:39.478Z,6.63
2018-01-04T12:02:05.766Z,9.00
2018-01-04T12:04:32.032Z,7.87
2018-01-04T12:06:58.153Z,7.93
2018-01-04T12:09:24.347Z,8.27
2018-01-04T12:11:50.657Z,9.63
2018-01-04T12:14:16.818Z,9.00
2018-01-04T12:16:43.070Z,9.00
2018-01-04T12:19:09.268Z,10.57
2018-01-04T12:21:35.483Z,8.47
2018-01-04T12:24:01.719Z,8.03
2018-01-04T12:26:27.894Z,7.90
2018-01-04T12:28:54.227Z,8.53
2018-01-04T12:31:20.407Z,8.53
2018-01-04T12:33:46.645Z,10.83
2018-01-04T12:36:13.274Z,8.27
2018-01-04T12:38:40.903Z,6.33
2018-01-04T12:41:07.875Z,8.33
2018-01-04T12:43:34.193Z,8.90
2018-01-04T12:46:00.469Z,9.30
2018-01-04T12:48:26.658Z,10.53
2018-01-04T12:50:52.894Z,9.80
2018-01-04T12:53:19.123Z,8.10
2018-01-04T12:55:45.363Z,10.37
2018-01-04T12:58:11.528Z,9.27
2018-01-04T13:00:37.757Z,11.53
2018-01-04T13:03:03.979Z,10.17
2018-01-04T13:05:30.231Z,10.30
2018-01-04T13:07:57.214Z,11.80
2018-01-04T13:10:23.455Z,10.83
2018-01-04T13:12:49.692Z,12.53
2018-01-04T13:15:15.883Z,10.20
2018-01-04T13:17:42.835Z,12.60
2018-01-04T13:20:09.023Z,8.97
2018-01-04T13:22:35.251Z,10.67
2018-01-04T13:25:01.471Z,9.53
2018-01-04T13:27:27.679Z,14.20
2018-01-04T13:29:53.930Z,13.23
2018-01-04T13:32:20.160Z,9.37
2018-01-04T13:34:47.227Z,9.43
2018-01-04T13:37:13.414Z,9.47
2018-01-04T13:39:39.654Z,18.43
2018-01-04T13:42:05.990Z,8.97
2018-01-04T13:44:32.295Z,9.80
2018-01-04T13:46:58.517Z,12.10
2018-01-04T13:49:24.710Z,10.53
2018-01-04T13:51:51.700Z,9.77
2018-01-04T13:54:17.934Z,8.70
2018-01-04T13:56:44.189Z,9.10
2018-01-04T13:59:10.378Z,9.30
2018-01-04T14:01:38.554Z,12.77
2018-01-04T14:04:05.223Z,9.23
2018-01-04T14:06:31.455Z,11.27
2018-01-04T14:08:57.622Z,11.83
2018-01-04T14:11:24.614Z,13.00
2018-01-04T14:13:50.809Z,10.17
2018-01-04T14:16:17.026Z,9.27
2018-01-04T14:18:43.991Z,9.47
2018-01-04T14:21:10.235Z,11.63
2018-01-04T14:23:36.433Z,14.77
2018-01-04T14:26:03.375Z,9.97
2018-01-04T14:28:30.420Z,10.83
2018-01-04T14:30:57.358Z,10.60
2018-01-04T14:33:24.348Z,9.70
2018-01-04T14:35:50.581Z,9.93
2018-01-04T14:38:16.852Z,11.07
2018-01-04T14:40:43.208Z,11.87
2018-01-04T14:43:10.153Z,10.33
2018-01-04T14:45:37.339Z,10.43
2018-01-04T16:12:59.832Z,7.43
2018-01-04T16:15:26.055Z,6.90
2018-01-04T16:17:52.244Z,11.70
2018-01-04T16:20:18.388Z,6.93
2018-01-04T16:22:44.548Z,10.70
2018-01-04T16:25:11.531Z,7.20
2018-01-04T16:27:37.773Z,10.73
2018-01-04T16:30:04.762Z,6.20
2018-01-04T16:32:31.046Z,10.33
2018-01-04T16:34:57.255Z,11.20
2018-01-04T16:37:23.506Z,13.10
2018-01-04T16:39:49.685Z,16.00
2018-01-04T16:42:16.653Z,16.60
2018-01-04T16:44:42.866Z,19.47
2018-01-04T16:47:09.830Z,16.40
2018-01-04T16:49:36.093Z,15.73
2018-01-04T16:52:02.405Z,18.10
2018-01-04T16:54:28.666Z,14.00
2018-01-04T16:56:54.956Z,13.77
2018-01-04T16:59:21.210Z,16.83
2018-01-04T17:01:47.420Z,19.47
2018-01-04T17:04:13.621Z,18.03
2018-01-04T17:06:40.578Z,16.67
2018-01-04T17:09:07.527Z,18.07
2018-01-04T17:11:33.713Z,18.13
2018-01-04T17:13:59.965Z,20.23
2018-01-04T17:16:27.032Z,19.47
2018-01-04T17:18:53.636Z,26.90
2018-01-04T17:21:19.950Z,22.30
2018-01-04T17:23:46.207Z,16.33
2018-01-04T17:26:12.462Z,19.57
2018-01-04T17:28:38.699Z,22.90
2018-01-04T17:31:04.924Z,21.17
2018-01-04T17:33:31.107Z,18.33
2018-01-04T17:35:58.238Z,22.10
2018-01-04T17:38:24.616Z,17.67
2018-01-04T17:40:51.602Z,18.50
2018-01-04T17:43:17.835Z,21.53
2018-01-04T17:45:44.693Z,18.53
2018-01-04T17:48:10.953Z,18.30
2018-01-04T17:50:37.172Z,22.20
2018-01-04T17:53:03.420Z,18.83
2018-01-04T17:55:30.605Z,20.83
2018-01-04T17:57:56.888Z,22.23
2018-01-04T18:00:24.394Z,21.30
2018-01-04T18:02:51.234Z,19.00
2018-01-04T18:05:17.562Z,20.30
2018-01-04T18:07:46.102Z,20.73
2018-01-04T18:10:12.780Z,21.80
2018-01-04T18:12:39.011Z,21.87
2018-01-04T18:15:05.625Z,21.87
2018-01-04T18:17:32.573Z,22.20
2018-01-04T18:20:00.048Z,21.27
2018-01-04T18:22:28.193Z,21.67
2018-01-04T18:24:54.435Z,27.80
2018-01-04T18:27:21.393Z,24.00
2018-01-04T18:29:49.134Z,10.97
2018-01-04T18:32:15.318Z,12.60
2018-01-04T18:34:41.611Z,22.63
2018-01-04T18:37:09.543Z,23.70
2018-01-04T18:39:36.096Z,25.73
2018-01-04T18:42:02.941Z,21.90
2018-01-04T18:44:29.140Z,20.70
2018-01-04T18:46:55.477Z,24.87
2018-01-04T18:49:22.439Z,23.23
2018-01-04T18:51:48.718Z,21.03
2018-01-04T18:54:15.525Z,23.30
2018-01-04T18:56:41.789Z,25.20
2018-01-04T18:59:08.000Z,28.33
2018-01-04T19:01:34.282Z,25.27
2018-01-04T19:04:01.238Z,28.07
2018-01-04T19:06:27.535Z,25.10
2018-01-04T19:08:53.762Z,25.57
2018-01-04T19:11:20.029Z,26.00
2018-01-04T19:13:46.846Z,24.23
2018-01-04T19:16:13.282Z,29.03
2018-01-04T19:18:39.532Z,24.97
2018-01-04T19:21:05.762Z,25.30
2018-01-04T19:23:31.960Z,22.60
2018-01-04T19:25:59.095Z,27.03
2018-01-04T19:28:25.321Z,24.80
2018-01-04T19:30:51.533Z,28.20
2018-01-04T19:33:18.168Z,24.63
2018-01-04T19:35:45.159Z,28.83
2018-01-04T19:38:11.414Z,26.93
2018-01-04T19:40:37.720Z,30.30
2018-01-04T19:43:04.016Z,25.57
2018-01-04T19:45:30.251Z,27.63
2018-01-04T19:47:56.452Z,32.03
2018-01-04T19:50:22.806Z,27.00
2018-01-04T19:52:49.473Z,26.23
2018-01-04T19:55:15.870Z,21.93
2018-01-04T19:57:42.891Z,28.77
2018-01-04T20:00:10.223Z,27.13
2018-01-04T20:02:36.475Z,22.57
2018-01-04T20:05:02.815Z,18.07
2018-01-04T20:07:29.090Z,16.53
2018-01-04T20:09:55.331Z,20.57
2018-01-04T20:12:21.565Z,16.87
2018-01-04T20:14:47.953Z,16.63
2018-01-04T20:17:14.251Z,20.00
2018-01-04T20:19:40.646Z,18.87
2018-01-04T20:22:06.885Z,19.80
2018-01-04T20:24:33.141Z,17.07
2018-01-04T20:26:59.379Z,18.40
2018-01-04T20:29:25.692Z,10.67
2018-01-04T20:31:52.675Z,9.30
2018-01-04T20:34:19.707Z,9.60
2018-01-04T20:36:46.742Z,6.27
2018-01-04T20:39:13.080Z,11.57
2018-01-04T20:41:39.302Z,11.73
2018-01-04T20:44:05.525Z,14.50
2018-01-04T20:46:31.811Z,13.97
2018-01-04T20:48:58.181Z,23.00
2018-01-04T20:51:24.482Z,14.10
2018-01-04T20:53:50.759Z,14.67
2018-01-04T20:56:17.040Z,10.97
2018-01-04T20:58:43.255Z,20.03
2018-01-04T21:01:10.333Z,14.77
2018-01-04T21:03:36.623Z,19.80
2018-01-04T21:06:02.868Z,20.60
2018-01-04T21:08:29.101Z,16.50
2018-01-04T21:10:56.397Z,18.77
2018-01-04T21:13:23.447Z,23.47
2018-01-04T21:15:49.740Z,14.33
2018-01-04T21:18:15.924Z,17.83
2018-01-04T21:20:42.578Z,24.43
2018-01-04T21:23:08.785Z,12.93
2018-01-04T21:25:34.965Z,18.37
2018-01-04T21:28:01.218Z,17.33
2018-01-04T21:30:27.494Z,16.23
2018-01-04T21:32:53.696Z,18.90
2018-01-04T21:35:19.888Z,14.33
2018-01-04T21:37:46.102Z,19.63
2018-01-04T21:40:13.197Z,16.60
2018-01-04T21:42:39.640Z,15.53
2018-01-04T21:45:05.868Z,15.93
2018-01-04T21:47:32.121Z,11.80
2018-01-04T21:49:58.342Z,10.50
2018-01-04T21:52:24.550Z,12.53
2018-01-04T21:54:50.847Z,16.67
2018-01-04T21:57:17.073Z,12.30
2018-01-04T21:59:43.299Z,15.67
2018-01-04T22:02:09.580Z,25.23
2018-01-04T22:04:35.938Z,14.80
2018-01-04T22:07:02.139Z,15.27
2018-01-04T22:09:28.431Z,17.60
2018-01-04T22:11:54.672Z,24.57
2018-01-04T22:14:23.488Z,12.03
2018-01-04T22:16:49.741Z,21.27
2018-01-04T22:19:17.007Z,22.40
2018-01-04T22:21:43.373Z,19.80
2018-01-04T22:24:09.575Z,16.17
2018-01-04T22:26:36.295Z,20.50
2018-01-04T22:29:02.489Z,16.10
2018-01-04T22:31:29.088Z,16.20
2018-01-04T22:33:56.049Z,9.67
2018-01-04T22:36:22.248Z,15.47
2018-01-04T22:38:48.419Z,16.67
2018-01-04T22:41:14.582Z,20.57
2018-01-04T22:43:41.543Z,15.20
2018-01-04T22:46:07.742Z,13.47
2018-01-04T22:48:34.004Z,13.30
2018-01-04T22:51:00.189Z,18.90
2018-01-04T22:53:26.415Z,26.30
2018-01-04T22:55:52.605Z,15.60
2018-01-04T22:58:18.816Z,11.27
2018-01-04T23:00:47.816Z,10.07
2018-01-04T23:03:14.328Z,14.00
2018-01-04T23:05:40.572Z,22.47
2018-01-04T23:08:06.814Z,17.20
2018-01-04T23:10:33.083Z,26.10
2018-01-04T23:12:59.313Z,17.40
2018-01-04T23:15:26.584Z,15.17
2018-01-04T23:17:52.766Z,19.80
2018-01-04T23:20:19.016Z,18.83
2018-01-04T23:22:45.274Z,14.63
2018-01-04T23:25:11.492Z,23.50
2018-01-04T23:27:37.748Z,15.93
2018-01-04T23:30:03.956Z,21.00
2018-01-04T23:32:30.144Z,28.87
2018-01-04T23:34:57.137Z,13.60
2018-01-04T23:37:24.073Z,11.87
2018-01-04T23:39:50.295Z,18.93
2018-01-04T23:42:16.532Z,18.43
2018-01-04T23:44:42.757Z,24.80
2018-01-04T23:47:09.366Z,15.33
2018-01-04T23:49:36.085Z,18.47
